Time;durP1;ratioP1;P1;durP2;ratioP2;P2;SDS_P1;SDS_P2;PMS_P1;PMS_P2;Temp;Humidity;BMP_temperature;BMP_pressure;BME280_temperature;BME280_humidity;BME280_pressure;Samples;Min_cycle;Max_cycle;Signal;HPM_P1;HPM_P2
2021/08/04 00:00:26;;;;;;;1.80;1.70;;;20.30;65.50;;;;;;5114636;28;20173;-68
2021/08/04 00:02:52;;;;;;;2.17;1.90;;;20.30;65.60;;;;;;5113984;28;20234;-67
2021/08/04 00:05:18;;;;;;;1.85;1.75;;;20.30;65.60;;;;;;5114947;28;20173;-69
2021/08/04 00:07:43;;;;;;;2.03;1.70;;;20.30;65.60;;;;;;5115192;28;20180;-68
2021/08/04 00:10:09;;;;;;;2.05;1.80;;;20.30;65.50;;;;;;5114075;28;20173;-68
2021/08/04 00:12:35;;;;;;;2.00;1.50;;;20.30;65.60;;;;;;5114587;28;20662;-69
2021/08/04 00:15:00;;;;;;;2.13;1.92;;;20.30;65.60;;;;;;5114578;28;20166;-67
2021/08/04 00:17:26;;;;;;;1.58;1.48;;;20.30;65.60;;;;;;5113644;28;20172;-68
2021/08/04 00:19:51;;;;;;;1.50;1.45;;;20.30;65.60;;;;;;5114762;28;20224;-67
2021/08/04 00:22:17;;;;;;;2.40;2.20;;;20.30;65.60;;;;;;5114362;28;20204;-67
2021/08/04 00:24:42;;;;;;;1.80;1.70;;;20.30;65.60;;;;;;5113996;28;20184;-68
2021/08/04 00:27:08;;;;;;;2.20;2.00;;;20.30;65.60;;;;;;5114620;28;20545;-68
2021/08/04 00:29:36;;;;;;;1.80;1.70;;;20.30;65.60;;;;;;5113824;28;20180;-68
2021/08/04 00:32:02;;;;;;;1.88;1.77;;;20.30;65.50;;;;;;5114527;28;20268;-68
2021/08/04 00:34:27;;;;;;;1.90;1.77;;;20.30;65.60;;;;;;5114018;28;20674;-68
2021/08/04 00:36:53;;;;;;;2.45;1.67;;;20.30;65.60;;;;;;5113932;28;20226;-68
2021/08/04 00:39:18;;;;;;;2.20;2.00;;;20.20;65.60;;;;;;5114012;28;20165;-68
2021/08/04 00:41:44;;;;;;;1.95;1.67;;;20.30;65.60;;;;;;5114147;28;20569;-67
2021/08/04 00:44:09;;;;;;;1.65;1.55;;;20.20;65.50;;;;;;5113526;28;20651;-68
2021/08/04 00:46:43;;;;;;;1.90;1.80;;;20.20;65.60;;;;;;5113591;28;20636;-67
2021/08/04 00:49:12;;;;;;;1.65;1.55;;;20.20;65.50;;;;;;5114539;28;20165;-68
2021/08/04 00:51:37;;;;;;;2.63;2.03;;;20.20;65.50;;;;;;5113171;28;20173;-67
2021/08/04 00:54:04;;;;;;;2.80;1.85;;;20.20;65.60;;;;;;5113878;28;20305;-69
2021/08/04 00:56:30;;;;;;;2.58;2.00;;;20.20;65.50;;;;;;5113678;28;20508;-68
2021/08/04 00:58:55;;;;;;;1.80;1.60;;;20.20;65.50;;;;;;5111447;28;20206;-68
2021/08/04 01:01:22;;;;;;;2.88;2.28;;;20.20;65.50;;;;;;5095332;28;20169;-70
2021/08/04 01:03:54;;;;;;;2.35;1.60;;;20.20;65.60;;;;;;5095865;28;20218;-68
2021/08/04 01:06:44;;;;;;;2.45;2.00;;;20.20;65.50;;;;;;5077831;28;20239;-69
2021/08/04 01:09:09;;;;;;;1.80;1.70;;;20.20;65.60;;;;;;5097887;28;20264;-70
2021/08/04 01:11:36;;;;;;;2.03;1.92;;;20.20;65.50;;;;;;5113540;28;20597;-68
2021/08/04 01:14:04;;;;;;;1.83;1.73;;;20.20;65.60;;;;;;5094693;28;20321;-68
2021/08/04 01:16:36;;;;;;;2.15;2.05;;;20.20;65.50;;;;;;5094817;28;20181;-67
2021/08/04 01:19:30;;;;;;;2.00;1.83;;;20.20;65.60;;;;;;5112589;28;20709;-67
2021/08/04 01:22:07;;;;;;;2.15;2.00;;;20.20;65.50;;;;;;5097617;28;20205;-67
2021/08/04 01:24:39;;;;;;;1.98;1.77;;;20.20;65.50;;;;;;5113091;28;20200;-67
2021/08/04 01:27:05;;;;;;;2.42;2.10;;;20.20;65.60;;;;;;5095284;28;20172;-67
2021/08/04 01:29:30;;;;;;;2.00;1.90;;;20.20;65.50;;;;;;5094546;28;20252;-67
2021/08/04 01:31:58;;;;;;;1.60;1.50;;;20.20;65.60;;;;;;5113018;28;20180;-68
2021/08/04 01:34:23;;;;;;;1.98;1.75;;;20.10;65.50;;;;;;5093812;28;20180;-68
2021/08/04 01:36:49;;;;;;;2.28;2.00;;;20.20;65.60;;;;;;5095081;28;20170;-68
2021/08/04 01:39:14;;;;;;;1.95;1.73;;;20.10;65.60;;;;;;5078129;28;20642;-67
2021/08/04 01:41:40;;;;;;;1.90;1.80;;;20.20;65.70;;;;;;5076815;28;20173;-67
2021/08/04 01:44:05;;;;;;;2.20;2.00;;;20.20;65.60;;;;;;5094801;28;20177;-68
2021/08/04 01:46:31;;;;;;;2.47;2.15;;;20.20;65.60;;;;;;5094259;28;20165;-67
2021/08/04 01:48:58;;;;;;;2.03;1.92;;;20.10;65.50;;;;;;5093667;28;20264;-68
2021/08/04 01:51:23;;;;;;;2.30;2.10;;;20.10;65.50;;;;;;5112383;28;20185;-68
2021/08/04 01:53:49;;;;;;;1.55;1.45;;;20.10;65.40;;;;;;5077790;28;20165;-68
2021/08/04 01:56:15;;;;;;;2.13;1.92;;;20.10;65.40;;;;;;5093632;28;20507;-68
2021/08/04 01:58:41;;;;;;;1.90;1.80;;;20.10;65.50;;;;;;5112356;28;20177;-68
2021/08/04 02:01:06;;;;;;;2.03;1.80;;;20.10;65.60;;;;;;5111932;28;20177;-68
2021/08/04 02:03:32;;;;;;;1.92;1.80;;;20.10;65.40;;;;;;5112152;28;20211;-68
2021/08/04 02:05:57;;;;;;;1.98;1.88;;;20.10;65.50;;;;;;5112531;28;20230;-68
2021/08/04 02:08:36;;;;;;;2.10;1.90;;;20.10;65.50;;;;;;5093207;28;20217;-69
2021/08/04 02:11:22;;;;;;;2.00;1.80;;;20.10;65.50;;;;;;5112485;28;20169;-68
2021/08/04 02:13:59;;;;;;;2.38;1.80;;;20.10;65.50;;;;;;5094076;28;20176;-68
2021/08/04 02:16:28;;;;;;;1.90;1.80;;;20.10;65.50;;;;;;5094118;28;20544;-68
2021/08/04 02:19:24;;;;;;;1.73;1.63;;;20.10;65.50;;;;;;5093633;28;20177;-67
2021/08/04 02:21:51;;;;;;;1.85;1.75;;;20.10;65.50;;;;;;5078811;28;20625;-69
2021/08/04 02:24:17;;;;;;;2.80;1.90;;;20.10;65.50;;;;;;5092756;28;20656;-67
2021/08/04 02:26:43;;;;;;;1.63;1.52;;;20.10;65.50;;;;;;5093911;28;20242;-67
2021/08/04 02:29:08;;;;;;;1.80;1.70;;;20.10;65.50;;;;;;5093402;28;20577;-69
2021/08/04 02:31:34;;;;;;;2.67;1.90;;;20.10;65.60;;;;;;5111746;28;20534;-68
2021/08/04 02:33:59;;;;;;;2.20;2.00;;;20.10;65.50;;;;;;5077171;28;20177;-69
2021/08/04 02:36:24;;;;;;;1.90;1.70;;;20.00;65.50;;;;;;5075955;28;20177;-68
2021/08/04 02:38:50;;;;;;;2.95;2.20;;;20.10;65.50;;;;;;5112078;28;20177;-68
2021/08/04 02:41:15;;;;;;;1.80;1.70;;;20.10;65.50;;;;;;5076542;28;20302;-68
2021/08/04 02:43:41;;;;;;;2.67;2.10;;;20.10;65.50;;;;;;5111049;28;20645;-68
2021/08/04 02:46:07;;;;;;;3.38;1.80;;;20.10;65.50;;;;;;5111982;28;20252;-68
2021/08/04 02:48:33;;;;;;;2.00;1.80;;;20.00;65.50;;;;;;5093351;28;20242;-67
2021/08/04 02:51:03;;;;;;;1.92;1.83;;;20.00;65.60;;;;;;5111230;28;20199;-68
2021/08/04 02:53:28;;;;;;;1.70;1.60;;;20.00;65.50;;;;;;5093849;28;20184;-68
2021/08/04 02:55:54;;;;;;;1.98;1.88;;;20.00;65.60;;;;;;5111727;28;20165;-69
2021/08/04 02:58:19;;;;;;;2.28;1.90;;;20.00;65.50;;;;;;5111076;28;20184;-68
2021/08/04 03:00:45;;;;;;;2.13;1.80;;;20.00;65.50;;;;;;5112135;28;20184;-67
2021/08/04 03:03:10;;;;;;;2.10;1.90;;;20.00;65.50;;;;;;5111706;28;20217;-68
2021/08/04 03:05:36;;;;;;;3.15;1.80;;;20.00;65.50;;;;;;5110931;28;20194;-68
2021/08/04 03:08:02;;;;;;;1.75;1.65;;;20.00;65.50;;;;;;5111509;28;20169;-68
2021/08/04 03:10:27;;;;;;;2.33;2.13;;;20.00;65.50;;;;;;5111256;28;20169;-69
2021/08/04 03:12:53;;;;;;;2.38;2.17;;;20.00;65.50;;;;;;5111092;28;20176;-68
2021/08/04 03:15:18;;;;;;;1.90;1.80;;;20.00;65.50;;;;;;5111510;28;20173;-68
2021/08/04 03:17:44;;;;;;;2.22;2.03;;;20.00;65.70;;;;;;5111848;28;20177;-68
2021/08/04 03:20:10;;;;;;;3.45;2.33;;;20.00;65.50;;;;;;5110905;28;20623;-69
2021/08/04 03:22:35;;;;;;;1.80;1.70;;;20.00;65.50;;;;;;5112659;28;20310;-67
2021/08/04 03:25:01;;;;;;;2.17;1.98;;;20.00;65.50;;;;;;5115965;28;20911;-68
2021/08/04 03:27:26;;;;;;;2.28;2.08;;;20.00;65.50;;;;;;5114737;28;20237;-68
2021/08/04 03:29:52;;;;;;;2.33;1.90;;;19.90;65.60;;;;;;5115535;28;20245;-68
2021/08/04 03:32:17;;;;;;;1.90;1.80;;;20.00;65.60;;;;;;5115386;28;20534;-68
2021/08/04 03:34:43;;;;;;;1.70;1.60;;;20.00;65.50;;;;;;5114784;28;20526;-68
2021/08/04 03:37:08;;;;;;;1.90;1.80;;;19.90;65.40;;;;;;5115541;28;20177;-67
2021/08/04 03:39:34;;;;;;;2.20;1.90;;;20.00;65.50;;;;;;5114377;28;20891;-67
2021/08/04 03:41:59;;;;;;;1.85;1.73;;;19.90;65.60;;;;;;5115484;28;20204;-68
2021/08/04 03:44:25;;;;;;;2.03;1.83;;;19.90;65.50;;;;;;5115150;28;20569;-68
2021/08/04 03:46:50;;;;;;;1.92;1.83;;;19.90;65.50;;;;;;5114534;28;20281;-67
2021/08/04 03:49:16;;;;;;;3.03;1.88;;;19.90;65.50;;;;;;5114921;28;20626;-67
2021/08/04 03:51:41;;;;;;;1.90;1.73;;;19.90;65.50;;;;;;5115374;28;20189;-68
2021/08/04 03:54:07;;;;;;;1.80;1.70;;;19.90;65.50;;;;;;5114426;28;20173;-67
2021/08/04 03:56:32;;;;;;;2.33;2.13;;;19.90;65.50;;;;;;5114951;28;20642;-68
2021/08/04 03:58:58;;;;;;;2.30;1.75;;;19.90;65.60;;;;;;5115313;28;20256;-68
2021/08/04 04:01:24;;;;;;;2.13;1.92;;;19.90;65.60;;;;;;5114151;28;20272;-68
2021/08/04 04:03:49;;;;;;;1.83;1.73;;;19.90;65.60;;;;;;5114928;28;20219;-68
2021/08/04 04:06:15;;;;;;;2.25;2.00;;;19.90;65.50;;;;;;5115015;28;20162;-69
2021/08/04 04:08:40;;;;;;;2.00;1.90;;;20.20;65.70;;;;;;5114070;28;20189;-69
2021/08/04 04:11:06;;;;;;;1.80;1.70;;;19.90;65.50;;;;;;5115044;28;20165;-68
2021/08/04 04:13:32;;;;;;;2.15;2.00;;;19.90;65.60;;;;;;5114667;28;20180;-68
2021/08/04 04:15:57;;;;;;;1.80;1.70;;;19.90;65.60;;;;;;5114465;28;20177;-68
2021/08/04 04:18:23;;;;;;;1.58;1.48;;;19.90;65.70;;;;;;5114626;28;20169;-67
2021/08/04 04:20:49;;;;;;;1.63;1.50;;;19.90;65.60;;;;;;5114695;28;20300;-70
2021/08/04 04:23:14;;;;;;;2.13;1.50;;;19.90;65.50;;;;;;5113805;28;20254;-68
2021/08/04 04:25:40;;;;;;;1.67;1.58;;;19.90;65.50;;;;;;5114533;28;20727;-70
2021/08/04 04:28:05;;;;;;;2.15;1.95;;;19.90;65.50;;;;;;5114859;28;20199;-68
2021/08/04 04:30:31;;;;;;;1.83;1.73;;;19.90;65.50;;;;;;5113791;28;20203;-68
2021/08/04 04:32:56;;;;;;;2.00;1.90;;;19.90;65.50;;;;;;5114388;28;20268;-67
2021/08/04 04:35:22;;;;;;;2.25;2.05;;;19.90;65.50;;;;;;5113355;28;20604;-69
2021/08/04 04:37:47;;;;;;;2.40;2.20;;;19.90;65.40;;;;;;5113752;28;20552;-68
2021/08/04 04:40:13;;;;;;;2.00;1.88;;;19.90;65.50;;;;;;5114791;28;20241;-68
2021/08/04 04:42:38;;;;;;;2.20;2.05;;;19.90;65.40;;;;;;5114033;28;20216;-68
2021/08/04 04:45:04;;;;;;;1.70;1.60;;;19.90;65.50;;;;;;5113853;28;20172;-67
2021/08/04 04:47:30;;;;;;;1.60;1.50;;;19.90;65.50;;;;;;5114109;28;20177;-68
2021/08/04 04:49:55;;;;;;;2.00;1.77;;;19.90;65.40;;;;;;5113545;28;20161;-68
2021/08/04 04:52:21;;;;;;;1.92;1.83;;;19.90;65.40;;;;;;5114025;28;20230;-68
2021/08/04 04:54:46;;;;;;;2.10;2.00;;;19.90;65.40;;;;;;5114163;28;20635;-68
2021/08/04 04:57:12;;;;;;;1.90;1.80;;;19.90;65.30;;;;;;5113437;28;20173;-67
2021/08/04 04:59:37;;;;;;;1.70;1.60;;;19.90;65.30;;;;;;5114022;28;20693;-68
2021/08/04 05:02:03;;;;;;;1.90;1.80;;;19.90;65.30;;;;;;5114128;28;20230;-70
2021/08/04 05:04:29;;;;;;;1.60;1.50;;;19.90;65.30;;;;;;5094775;28;20177;-70
2021/08/04 05:06:54;;;;;;;1.92;1.83;;;19.90;65.30;;;;;;5113939;28;20628;-69
2021/08/04 05:09:20;;;;;;;1.77;1.58;;;19.90;65.30;;;;;;5113702;28;20177;-70
2021/08/04 05:11:45;;;;;;;1.92;1.83;;;19.90;65.30;;;;;;5113204;28;20237;-70
2021/08/04 05:14:11;;;;;;;2.03;1.85;;;19.90;65.30;;;;;;5113752;28;20307;-69
2021/08/04 05:16:36;;;;;;;1.90;1.80;;;19.90;65.30;;;;;;5113267;28;20624;-69
2021/08/04 05:19:02;;;;;;;1.60;1.50;;;19.90;65.30;;;;;;5112954;28;20331;-69
2021/08/04 05:21:27;;;;;;;1.70;1.60;;;19.90;65.30;;;;;;5113254;28;20221;-69
2021/08/04 05:23:53;;;;;;;1.75;1.65;;;19.90;65.30;;;;;;5112905;28;20270;-69
2021/08/04 05:26:18;;;;;;;1.98;1.60;;;19.90;65.30;;;;;;5112740;28;20173;-70
2021/08/04 05:28:44;;;;;;;1.70;1.60;;;19.90;65.20;;;;;;5113551;28;20201;-69
2021/08/04 05:31:09;;;;;;;2.20;2.00;;;19.90;65.20;;;;;;5113667;28;20169;-69
2021/08/04 05:33:35;;;;;;;1.67;1.58;;;19.90;65.20;;;;;;5112497;28;20192;-69
2021/08/04 05:36:00;;;;;;;1.77;1.67;;;20.00;65.30;;;;;;5113104;28;20264;-69
2021/08/04 05:38:26;;;;;;;1.38;1.38;;;19.90;65.20;;;;;;5112910;28;20612;-69
2021/08/04 05:40:51;;;;;;;1.83;1.73;;;19.90;65.20;;;;;;5112605;28;20181;-69
2021/08/04 05:43:17;;;;;;;1.75;1.60;;;19.90;65.20;;;;;;5112962;28;20201;-67
2021/08/04 05:45:42;;;;;;;1.70;1.60;;;19.90;65.20;;;;;;5112690;28;20200;-68
2021/08/04 05:48:08;;;;;;;1.58;1.48;;;19.90;65.20;;;;;;5112379;28;20180;-68
2021/08/04 05:50:33;;;;;;;1.60;1.50;;;20.00;65.30;;;;;;5112697;28;20173;-68
2021/08/04 05:52:59;;;;;;;1.77;1.67;;;20.00;65.30;;;;;;5113147;28;20184;-68
2021/08/04 05:55:24;;;;;;;2.65;1.70;;;20.00;65.20;;;;;;5112244;28;20165;-68
2021/08/04 05:57:50;;;;;;;1.50;1.40;;;20.00;65.20;;;;;;5113064;28;20187;-69
2021/08/04 06:00:16;;;;;;;1.83;1.73;;;20.00;65.20;;;;;;5110959;28;20185;-68
2021/08/04 06:02:41;;;;;;;2.03;1.80;;;20.00;65.10;;;;;;5112785;28;20296;-68
2021/08/04 06:05:07;;;;;;;1.83;1.70;;;20.00;65.10;;;;;;5113053;28;20188;-68
2021/08/04 06:07:33;;;;;;;1.90;1.80;;;20.00;65.10;;;;;;5112106;28;20326;-68
2021/08/04 06:09:58;;;;;;;1.60;1.50;;;20.00;65.10;;;;;;5112841;28;20169;-69
2021/08/04 06:12:24;;;;;;;1.80;1.70;;;20.00;65.00;;;;;;5112251;28;20184;-68
2021/08/04 06:14:49;;;;;;;1.85;1.75;;;20.00;65.00;;;;;;5111906;28;20169;-69
2021/08/04 06:17:15;;;;;;;1.35;1.20;;;20.00;65.00;;;;;;5112477;28;20577;-68
2021/08/04 06:19:40;;;;;;;1.50;1.40;;;20.10;65.10;;;;;;5112187;28;20295;-67
2021/08/04 06:22:06;;;;;;;2.40;1.60;;;20.10;65.10;;;;;;5111671;28;20201;-68
2021/08/04 06:24:34;;;;;;;1.73;1.63;;;20.10;65.00;;;;;;5112199;28;20349;-67
2021/08/04 06:27:00;;;;;;;1.50;1.40;;;20.10;65.00;;;;;;5112480;28;20291;-68
2021/08/04 06:29:25;;;;;;;2.92;1.70;;;20.10;65.00;;;;;;5111405;28;20181;-68
2021/08/04 06:31:51;;;;;;;1.90;1.55;;;20.10;64.90;;;;;;5112250;28;20204;-68
2021/08/04 06:34:17;;;;;;;1.63;1.52;;;20.10;65.00;;;;;;5112175;28;20191;-68
2021/08/04 06:36:42;;;;;;;1.50;1.40;;;20.10;64.90;;;;;;5111433;28;20185;-67
2021/08/04 06:39:08;;;;;;;4.88;1.40;;;20.10;64.90;;;;;;5112483;28;20185;-68
2021/08/04 06:41:33;;;;;;;1.85;1.75;;;20.10;64.90;;;;;;5112122;28;20172;-69
2021/08/04 06:43:59;;;;;;;1.70;1.60;;;20.20;64.90;;;;;;5111506;28;20213;-69
2021/08/04 06:46:32;;;;;;;1.50;1.40;;;20.10;64.80;;;;;;5111625;28;20188;-69
2021/08/04 06:48:57;;;;;;;1.55;1.45;;;20.20;64.80;;;;;;5111828;28;20260;-69
2021/08/04 06:51:26;;;;;;;1.50;1.40;;;20.20;64.80;;;;;;5110841;28;20589;-69
2021/08/04 06:53:51;;;;;;;1.52;1.42;;;20.20;64.80;;;;;;5111779;28;20632;-70
2021/08/04 06:56:17;;;;;;;2.25;1.75;;;20.20;64.80;;;;;;5111077;28;20192;-69
2021/08/04 06:58:42;;;;;;;1.63;1.30;;;20.20;64.80;;;;;;5110719;28;20169;-70
2021/08/04 07:01:08;;;;;;;1.83;1.70;;;20.20;64.80;;;;;;5111930;28;20173;-69
2021/08/04 07:03:35;;;;;;;1.70;1.60;;;20.20;64.70;;;;;;5110586;28;20208;-69
2021/08/04 07:06:01;;;;;;;1.40;1.30;;;20.20;64.70;;;;;;5111787;28;20576;-68
2021/08/04 07:08:27;;;;;;;1.70;1.60;;;20.20;64.70;;;;;;5111535;28;20196;-68
2021/08/04 07:10:52;;;;;;;1.65;1.55;;;20.30;64.80;;;;;;5111127;28;20165;-67
2021/08/04 07:13:18;;;;;;;1.70;1.60;;;20.30;65.00;;;;;;5111710;28;20627;-66
2021/08/04 07:15:44;;;;;;;2.38;1.55;;;20.30;64.70;;;;;;5111644;28;20193;-66
2021/08/04 07:18:09;;;;;;;1.38;1.30;;;20.30;64.70;;;;;;5110848;28;20169;-66
2021/08/04 07:20:36;;;;;;;2.00;1.40;;;20.30;64.80;;;;;;5111210;28;20232;-66
2021/08/04 07:23:01;;;;;;;1.40;1.30;;;20.30;64.80;;;;;;5111345;28;20234;-65
2021/08/04 07:25:27;;;;;;;2.80;2.00;;;20.30;64.80;;;;;;5110695;28;20256;-65
2021/08/04 07:27:52;;;;;;;1.95;1.85;;;20.30;64.90;;;;;;5111628;28;20177;-66
2021/08/04 07:30:18;;;;;;;2.53;1.50;;;20.30;64.90;;;;;;5111268;28;20620;-69
2021/08/04 07:32:43;;;;;;;1.50;1.40;;;20.40;65.00;;;;;;5110860;28;20552;-69
2021/08/04 07:35:09;;;;;;;2.92;1.75;;;20.40;65.10;;;;;;5111579;28;20165;-68
2021/08/04 07:37:35;;;;;;;1.83;1.70;;;20.40;65.10;;;;;;5111381;28;20565;-67
2021/08/04 07:40:00;;;;;;;1.90;1.70;;;20.40;65.00;;;;;;5111030;28;20180;-69
2021/08/04 07:42:26;;;;;;;2.08;1.52;;;20.40;64.90;;;;;;5111144;28;20205;-67
2021/08/04 07:44:52;;;;;;;1.67;1.58;;;20.50;64.90;;;;;;5111644;28;20169;-67
2021/08/04 07:47:18;;;;;;;1.88;1.70;;;20.50;64.90;;;;;;5110253;28;20254;-66
2021/08/04 07:49:46;;;;;;;2.00;1.80;;;20.50;64.90;;;;;;5111428;28;20169;-67
2021/08/04 07:52:12;;;;;;;2.90;1.80;;;20.50;65.00;;;;;;5111568;28;20166;-66
2021/08/04 07:54:39;;;;;;;1.75;1.60;;;20.50;65.00;;;;;;5110279;28;20209;-67
2021/08/04 07:57:05;;;;;;;2.60;2.17;;;20.50;65.00;;;;;;5111157;28;20531;-66
2021/08/04 07:59:30;;;;;;;2.90;1.80;;;20.50;64.90;;;;;;5111164;28;20677;-67
2021/08/04 08:01:56;;;;;;;2.35;1.92;;;20.50;64.90;;;;;;5110284;28;20180;-67
2021/08/04 08:04:21;;;;;;;2.00;1.80;;;20.60;65.10;;;;;;5110908;28;20627;-67
2021/08/04 08:06:47;;;;;;;2.10;1.90;;;20.60;65.10;;;;;;5110807;28;20178;-68
2021/08/04 08:09:13;;;;;;;2.22;1.70;;;20.60;65.10;;;;;;5113607;28;20165;-66
2021/08/04 08:11:39;;;;;;;2.42;1.80;;;20.60;65.10;;;;;;5114770;28;20180;-66
2021/08/04 08:14:05;;;;;;;3.25;1.70;;;20.60;65.10;;;;;;5114198;28;20873;-65
2021/08/04 08:16:30;;;;;;;3.15;1.90;;;20.60;65.10;;;;;;5114512;28;20184;-66
2021/08/04 08:18:56;;;;;;;2.08;1.90;;;20.60;65.10;;;;;;5115216;28;20252;-64
2021/08/04 08:21:23;;;;;;;2.38;1.98;;;20.60;65.10;;;;;;5113635;28;20633;-64
2021/08/04 08:23:50;;;;;;;2.83;1.70;;;20.70;65.20;;;;;;5114838;28;20220;-65
2021/08/04 08:26:15;;;;;;;2.15;1.85;;;20.70;65.10;;;;;;5114720;28;20192;-64
2021/08/04 08:28:41;;;;;;;1.60;1.50;;;20.70;65.10;;;;;;5113916;28;20208;-64
2021/08/04 08:31:07;;;;;;;2.70;1.95;;;20.70;65.10;;;;;;5114377;28;20230;-64
2021/08/04 08:33:32;;;;;;;4.15;1.80;;;20.70;65.10;;;;;;5114026;28;20185;-63
2021/08/04 08:35:58;;;;;;;3.90;1.70;;;20.80;65.10;;;;;;5113578;28;20184;-63
2021/08/04 08:38:23;;;;;;;2.20;1.80;;;20.80;65.20;;;;;;5113999;28;20257;-62
2021/08/04 08:40:49;;;;;;;1.70;1.60;;;20.80;65.20;;;;;;5122117;27;20169;-65
2021/08/04 08:43:15;;;;;;;3.78;1.90;;;20.80;65.20;;;;;;5115917;27;20644;-65
2021/08/04 08:45:41;;;;;;;2.58;1.88;;;20.90;65.30;;;;;;5120787;27;20181;-65
2021/08/04 08:48:06;;;;;;;3.90;1.98;;;20.90;65.40;;;;;;5115135;27;20226;-65
2021/08/04 08:50:37;;;;;;;3.95;1.70;;;20.90;65.30;;;;;;5113272;28;20540;-65
2021/08/04 08:53:02;;;;;;;3.65;1.90;;;20.90;66.20;;;;;;5095905;28;20177;-64
2021/08/04 08:55:28;;;;;;;4.75;1.80;;;20.90;65.30;;;;;;5095479;28;20580;-65
2021/08/04 08:57:53;;;;;;;3.85;1.70;;;21.00;65.40;;;;;;5095008;28;20201;-62
2021/08/04 09:00:19;;;;;;;3.30;1.98;;;21.00;65.40;;;;;;5113489;28;20173;-63
2021/08/04 09:02:44;;;;;;;1.90;1.70;;;21.00;65.40;;;;;;5115171;27;20257;-63
2021/08/04 09:05:11;;;;;;;2.30;1.85;;;21.00;65.30;;;;;;5125816;27;20676;-64
2021/08/04 09:07:38;;;;;;;2.42;1.80;;;21.00;65.30;;;;;;5118790;27;20260;-62
2021/08/04 09:10:33;;;;;;;2.10;1.73;;;21.00;65.40;;;;;;5112886;28;20184;-63
2021/08/04 09:13:00;;;;;;;3.47;1.65;;;21.00;65.30;;;;;;5113728;28;20248;-63
2021/08/04 09:15:27;;;;;;;2.70;2.00;;;21.10;65.20;;;;;;5113510;28;20193;-63
2021/08/04 09:17:59;;;;;;;1.83;1.70;;;21.10;65.10;;;;;;5113318;28;20177;-63
2021/08/04 09:20:27;;;;;;;2.95;1.83;;;21.10;65.00;;;;;;5127532;27;20224;-63
2021/08/04 09:23:01;;;;;;;1.90;1.70;;;21.10;65.00;;;;;;5134078;27;20265;-64
2021/08/04 09:25:26;;;;;;;2.88;1.75;;;21.20;65.10;;;;;;5115728;27;20169;-63
2021/08/04 09:27:57;;;;;;;2.25;1.80;;;21.20;65.10;;;;;;5134502;27;20184;-63
2021/08/04 09:30:32;;;;;;;3.35;2.03;;;21.20;65.00;;;;;;5134240;27;20219;-64
2021/08/04 09:33:19;;;;;;;2.00;1.80;;;21.20;64.90;;;;;;5133266;27;20197;-64
2021/08/04 09:35:47;;;;;;;2.55;1.60;;;21.20;64.90;;;;;;5132230;27;20176;-64
2021/08/04 09:38:13;;;;;;;2.60;1.75;;;21.30;64.90;;;;;;5112714;28;20594;-64
2021/08/04 09:40:39;;;;;;;3.38;1.58;;;21.30;64.80;;;;;;5113464;28;20181;-64
2021/08/04 09:43:04;;;;;;;3.28;2.17;;;21.30;64.80;;;;;;5113333;28;20647;-64
2021/08/04 09:45:41;;;;;;;2.30;1.60;;;21.30;64.80;;;;;;5112573;28;20272;-64
2021/08/04 09:48:11;;;;;;;2.45;1.58;;;21.30;64.70;;;;;;5113289;28;20619;-65
2021/08/04 09:50:57;;;;;;;3.33;1.55;;;21.40;64.70;;;;;;5113352;28;20242;-66
2021/08/04 09:53:33;;;;;;;1.95;1.83;;;21.40;64.60;;;;;;5112096;28;20180;-64
2021/08/04 09:56:18;;;;;;;2.33;1.60;;;21.40;64.60;;;;;;5113677;28;20179;-68
2021/08/04 09:58:46;;;;;;;2.10;1.48;;;21.40;64.60;;;;;;5112963;28;20180;-63
2021/08/04 10:01:14;;;;;;;2.95;1.70;;;21.40;64.50;;;;;;5112245;28;20186;-64
2021/08/04 10:03:59;;;;;;;3.30;1.73;;;21.50;64.50;;;;;;5112491;28;20546;-64
2021/08/04 10:06:25;;;;;;;2.10;1.90;;;21.50;64.40;;;;;;5096347;28;20184;-64
2021/08/04 10:08:51;;;;;;;1.75;1.48;;;21.50;64.30;;;;;;5112901;28;20568;-63
2021/08/04 10:11:17;;;;;;;2.42;1.60;;;21.50;64.30;;;;;;5124717;27;20205;-64
2021/08/04 10:13:42;;;;;;;2.92;1.65;;;21.50;64.30;;;;;;5132781;27;20168;-63
2021/08/04 10:16:08;;;;;;;2.08;1.70;;;21.60;64.40;;;;;;5097972;27;20693;-63
2021/08/04 10:18:33;;;;;;;2.33;1.60;;;21.60;64.30;;;;;;5132933;27;20172;-62
2021/08/04 10:21:05;;;;;;;1.63;1.52;;;21.60;64.30;;;;;;5114100;27;20235;-62
2021/08/04 10:23:31;;;;;;;2.05;1.58;;;21.60;64.20;;;;;;5132782;27;20257;-62
2021/08/04 10:25:57;;;;;;;1.85;1.48;;;21.60;64.20;;;;;;5133185;27;20173;-62
2021/08/04 10:28:22;;;;;;;1.70;1.60;;;21.60;64.10;;;;;;5132303;27;20176;-63
2021/08/04 10:30:48;;;;;;;1.75;1.40;;;21.70;64.20;;;;;;5133099;27;20175;-63
2021/08/04 10:33:14;;;;;;;1.65;1.55;;;21.70;64.10;;;;;;5132912;27;20203;-63
2021/08/04 10:35:45;;;;;;;2.60;1.60;;;21.60;64.00;;;;;;5131949;27;20175;-64
2021/08/04 10:38:17;;;;;;;1.42;1.33;;;21.70;64.00;;;;;;5097329;27;20176;-63
2021/08/04 10:40:42;;;;;;;2.05;1.50;;;21.70;64.00;;;;;;5097883;27;20198;-62
2021/08/04 10:43:08;;;;;;;1.88;1.50;;;21.70;63.90;;;;;;5131948;27;20705;-62
2021/08/04 10:45:34;;;;;;;1.73;1.63;;;21.70;63.80;;;;;;5132410;27;20500;-64
2021/08/04 10:48:22;;;;;;;1.98;1.50;;;21.70;63.70;;;;;;5132571;27;20204;-64
2021/08/04 10:51:10;;;;;;;3.25;1.60;;;21.80;63.90;;;;;;5132002;27;20609;-64
2021/08/04 10:53:58;;;;;;;4.13;1.52;;;21.80;63.80;;;;;;5132534;27;20187;-64
2021/08/04 10:56:48;;;;;;;2.78;1.42;;;21.80;63.80;;;;;;5115659;27;20164;-64
2021/08/04 10:59:13;;;;;;;3.58;1.70;;;21.80;63.70;;;;;;5109885;27;20271;-67
2021/08/04 11:01:50;;;;;;;3.97;1.60;;;21.80;63.60;;;;;;5132236;28;20294;-67
2021/08/04 11:04:44;;;;;;;4.80;2.10;;;21.90;63.60;;;;;;5131592;28;20190;-68
2021/08/04 11:07:16;;;;;;;2.38;1.50;;;21.90;63.50;;;;;;5122931;28;20196;-68
2021/08/04 11:09:51;;;;;;;1.75;1.65;;;21.90;63.50;;;;;;5113980;28;20188;-68
2021/08/04 11:12:34;;;;;;;1.70;1.50;;;21.90;63.50;;;;;;5111608;28;20200;-68
2021/08/04 11:15:01;;;;;;;2.50;1.45;;;22.00;63.50;;;;;;5111539;28;20165;-68
2021/08/04 11:17:31;;;;;;;3.53;1.73;;;22.00;63.60;;;;;;5110823;28;20191;-68
2021/08/04 11:19:57;;;;;;;4.15;1.90;;;22.10;63.60;;;;;;5111274;28;20221;-68
2021/08/04 11:22:23;;;;;;;2.35;1.52;;;22.00;63.60;;;;;;5111482;28;20683;-71
2021/08/04 11:24:58;;;;;;;2.10;1.63;;;22.00;63.60;;;;;;5111239;28;20177;-71
2021/08/04 11:27:25;;;;;;;2.28;1.35;;;22.00;63.60;;;;;;5111470;28;20179;-72
2021/08/04 11:29:52;;;;;;;3.58;1.95;;;22.00;63.60;;;;;;5093514;28;20253;-73
2021/08/04 11:32:21;;;;;;;2.58;1.58;;;22.00;63.60;;;;;;5110497;28;20358;-75
2021/08/04 11:34:46;;;;;;;2.63;1.55;;;22.00;63.60;;;;;;5111533;28;20238;-76
2021/08/04 11:37:12;;;;;;;2.67;1.70;;;22.00;63.50;;;;;;5093343;28;20616;-71
2021/08/04 11:39:57;;;;;;;3.20;1.88;;;22.10;63.40;;;;;;5110294;28;20180;-70
2021/08/04 11:42:23;;;;;;;3.08;1.48;;;22.10;64.10;;;;;;5111048;28;20754;-71
2021/08/04 11:44:49;;;;;;;2.67;1.65;;;22.10;63.10;;;;;;5114289;28;20348;-71
2021/08/04 11:47:14;;;;;;;2.30;1.48;;;22.10;63.10;;;;;;5115743;28;20327;-70
2021/08/04 11:49:41;;;;;;;1.60;1.23;;;22.10;63.00;;;;;;5115279;28;20257;-72
2021/08/04 11:52:14;;;;;;;2.00;1.50;;;22.10;62.90;;;;;;5115002;28;20925;-72
2021/08/04 11:54:44;;;;;;;1.45;1.33;;;22.20;63.00;;;;;;5115177;28;20264;-72
2021/08/04 11:57:31;;;;;;;2.47;1.60;;;22.20;63.00;;;;;;5115242;28;20222;-72
2021/08/04 11:59:58;;;;;;;3.05;1.55;;;22.10;62.90;;;;;;5114055;28;20659;-72
2021/08/04 12:02:24;;;;;;;2.28;1.80;;;22.20;63.00;;;;;;5117695;28;20293;-77
2021/08/04 12:04:54;;;;;;;1.67;1.30;;;22.20;62.90;;;;;;5116380;28;20189;-74
2021/08/04 12:07:22;;;;;;;3.53;1.90;;;22.30;62.70;;;;;;5114251;28;20185;-73
2021/08/04 12:09:48;;;;;;;2.50;1.70;;;22.30;62.70;;;;;;5115061;28;20169;-74
2021/08/04 12:12:16;;;;;;;2.00;1.77;;;22.30;62.70;;;;;;5135641;27;20229;-73
2021/08/04 12:14:42;;;;;;;3.28;1.73;;;22.30;62.70;;;;;;5134802;27;20184;-72
2021/08/04 12:17:07;;;;;;;3.13;2.13;;;22.30;62.60;;;;;;5135575;27;20667;-72
2021/08/04 12:19:43;;;;;;;1.45;1.35;;;22.30;62.50;;;;;;5134906;27;20633;-72
2021/08/04 12:22:16;;;;;;;1.40;1.30;;;22.40;62.40;;;;;;5134387;27;20538;-72
2021/08/04 12:24:44;;;;;;;2.22;1.77;;;22.40;62.30;;;;;;5135339;27;20614;-72
2021/08/04 12:27:09;;;;;;;2.63;1.58;;;22.40;62.10;;;;;;5134923;27;20176;-72
2021/08/04 12:29:35;;;;;;;2.05;1.73;;;22.40;62.10;;;;;;5134898;27;20219;-72
2021/08/04 12:32:17;;;;;;;2.08;1.80;;;22.50;62.00;;;;;;5135472;27;20180;-73
2021/08/04 12:35:02;;;;;;;1.85;1.50;;;22.50;61.90;;;;;;5134188;27;20251;-72
2021/08/04 12:37:29;;;;;;;3.17;1.70;;;22.50;61.80;;;;;;5102110;27;20176;-73
2021/08/04 12:40:01;;;;;;;1.73;1.63;;;22.60;61.80;;;;;;5116799;27;20222;-73
2021/08/04 12:42:27;;;;;;;1.83;1.50;;;22.50;61.70;;;;;;5133984;27;20204;-72
2021/08/04 12:45:24;;;;;;;1.85;1.48;;;22.60;61.70;;;;;;5116708;27;20176;-73
2021/08/04 12:47:56;;;;;;;2.15;1.40;;;22.60;61.60;;;;;;5135354;27;20520;-72
2021/08/04 12:50:23;;;;;;;2.65;1.60;;;22.60;61.50;;;;;;5134087;27;20183;-74